Friday, September 30, 2016, 5:57 PM EDT

KW99, Petersburg, Grant County Airport

Location: Petersburg, WV, United States Lat: 38.983
Local Time: 5:57 PM EDT (21:57 GMT) Lon: -79.133
Time Zone: US/Eastern Elev: 961 ft

Show me the last for .
Show Decoded

2016-09-30 17:35 METAR KW99 302135Z AUTO 34005KT 4SM DZ OVC014 15/14 A3012 RMK AO2 T01500142 =
2016-09-30 17:15 METAR KW99 302115Z AUTO 01005KT 5SM BR OVC016 15/14 A3012 RMK AO2 T01500141 =
2016-09-30 16:55 METAR KW99 302055Z AUTO 00000KT 2 1/2SM -DZ SCT007 OVC016 15/14 A3013 RMK AO2
                 LTG DSNT SE P0004 60008 T01500143 =
2016-09-30 16:35 METAR KW99 302035Z AUTO 34004KT 1 1/2SM +RA BKN007 OVC017 15/14 A3013 RMK AO2
                 P0003 T01500143 =
2016-09-30 16:15 METAR KW99 302015Z AUTO 28004KT 1 1/2SM DZ BKN009 OVC017 15/14 A3014 RMK AO2
                 P0001 T01490142 =
2016-09-30 15:55 METAR KW99 301955Z AUTO 34006KT 2SM -RA BKN008 OVC012 15/14 A3012 RMK AO2 P0003
                 T01490142 =
2016-09-30 15:35 METAR KW99 301935Z AUTO 33004KT 2SM DZ BKN006 OVC017 15/14 A3013 RMK AO2
                 T01500143 =
2016-09-30 15:15 METAR KW99 301915Z AUTO 32003KT 2 1/2SM BR SCT006 OVC017 15/15 A3013 RMK AO2
                 T01530145 =
2016-09-30 14:55 METAR KW99 301855Z AUTO 03004KT 3SM BR BKN006 BKN011 OVC017 15/15 A3012 RMK AO2
                 P0001 T01520145 =
2016-09-30 14:35 METAR KW99 301835Z AUTO 33003KT 2SM -DZ BKN006 OVC011 15/15 A3012 RMK AO2 LTG
                 DSNT W P0001 T01520145 =
2016-09-30 14:15 METAR KW99 301815Z AUTO 35004KT 2SM -DZ BKN006 OVC016 15/15 A3014 RMK AO2 P0001
                 T01520146 =
2016-09-30 13:55 METAR KW99 301755Z AUTO 36004KT 2SM -DZ BKN008 OVC011 15/15 A3015 RMK AO2 LTG
                 DSNT W 60002 T01520145 10152 20148 =
2016-09-30 13:35 METAR KW99 301735Z AUTO 35004KT 2SM BR BKN008 OVC017 15/15 A3015 RMK AO2
                 T01520145 =
2016-09-30 13:15 METAR KW99 301715Z AUTO 00000KT 4SM BR BKN008 OVC012 15/14 A3016 RMK AO2
                 T01500142 =
2016-09-30 12:55 METAR KW99 301655Z AUTO 33004KT 2 1/2SM -DZ BKN006 OVC017 15/15 A3016 RMK AO2
                 T01510145 =
2016-09-30 12:30 METAR KW99 301630Z AUTO 33005KT 2SM DZ SCT006 BKN010 OVC017 15/14 A3017 RMK AO2
                 LTG DSNT NW T01500142 =
2016-09-30 12:15 METAR KW99 301615Z AUTO 00000KT 3SM -RA BKN008 OVC017 15/14 A3017 RMK AO2
                 T01490141 =
2016-09-30 11:55 METAR KW99 301555Z AUTO 34004KT 2SM -DZ OVC008 15/14 A3017 RMK AO2 LTG DSNT NW
                 P0001 T01500143 =
2016-09-30 11:35 METAR KW99 301535Z AUTO 33003KT 2SM -RA SCT006 OVC013 15/14 A3017 RMK AO2 P0001
                 T01500142 =
2016-09-30 11:15 METAR KW99 301515Z AUTO 33003KT 2SM DZ SCT006 OVC015 15/14 A3017 RMK AO2 LTG
                 DSNT W AND NW T01500142 =
2016-09-30 10:55 METAR KW99 301455Z AUTO 33005KT 3SM -DZ SCT006 OVC015 15/14 A3018 RMK AO2 60001
                 T01510143 =
2016-09-30 10:35 METAR KW99 301435Z AUTO 34004KT 2 1/2SM -DZ SCT006 OVC017 15/14 A3018 RMK AO2
                 T01500142 =
2016-09-30 10:15 METAR KW99 301415Z AUTO 34003KT 2SM DZ SCT006 OVC017 15/14 A3018 RMK AO2
                 T01500142 =
2016-09-30 09:55 METAR KW99 301355Z AUTO 34003KT 2 1/2SM DZ SCT007 OVC015 15/14 A3018 RMK AO2
                 P0001 T01500142 =
2016-09-30 09:35 METAR KW99 301335Z AUTO 36004KT 2 1/2SM -DZ SCT007 OVC014 15/14 A3017 RMK AO2
                 P0001 T01490141 =
2016-09-30 09:15 METAR KW99 301315Z AUTO 34003KT 3SM DZ SCT007 OVC015 15/14 A3017 RMK AO2
                 T01490141 =
2016-09-30 08:55 METAR KW99 301255Z AUTO 35003KT 2 1/2SM RA OVC018 15/14 A3017 RMK AO2 LTG DSNT W
                 T01500142 =
2016-09-30 08:35 METAR KW99 301235Z AUTO 34006KT 2 1/2SM -RA OVC020 15/14 A3017 RMK AO2 T01500142
                 =
2016-09-30 08:15 METAR KW99 301215Z AUTO 00000KT 3SM -RA BKN020 OVC024 15/14 A3017 RMK AO2
                 T01500142 =
2016-09-30 07:55 METAR KW99 301155Z AUTO 34004KT 2 1/2SM DZ OVC020 15/14 A3017 RMK AO2 LTG DSNT W
                 P0002 60003 70113 T01500142 10170 20150 =
2016-09-30 07:35 METAR KW99 301135Z AUTO 34005KT 5SM -DZ OVC020 15/14 A3017 RMK AO2 P0002
                 T01500143 =
2016-09-30 07:15 METAR KW99 301115Z AUTO 34005KT 3SM RA OVC019 15/14 A3017 RMK AO2 P0001
                 T01500143 =
2016-09-30 06:55 METAR KW99 301055Z AUTO 35005KT 4SM -RA SCT017 OVC021 15/15 A3016 RMK AO2 P0001
                 T01520145 =
2016-09-30 06:35 METAR KW99 301035Z AUTO 35006KT 5SM DZ BKN017 OVC022 15/15 A3016 RMK AO2 P0001
                 T01530145 =
2016-09-30 06:15 METAR KW99 301015Z AUTO 34004KT 4SM +DZ OVC019 16/15 A3015 RMK AO2 P0001
                 T01550146 =
2016-09-30 05:55 METAR KW99 300955Z AUTO 00000KT 10SM RA OVC019 16/15 A3015 RMK AO2 T01550146 =
2016-09-30 05:35 METAR KW99 300935Z AUTO 31004KT 10SM DZ OVC019 16/15 A3015 RMK AO2 T01580146 =
2016-09-30 05:15 METAR KW99 300915Z AUTO 34003KT 10SM DZ OVC019 16/15 A3014 RMK AO2 T01600146 =
2016-09-30 04:55 METAR KW99 300855Z AUTO 00000KT 10SM RA BKN017 OVC022 16/15 A3014 RMK AO2
                 T01600146 =
2016-09-30 04:35 METAR KW99 300835Z AUTO 00000KT 10SM SCT010 OVC017 16/15 A3014 RMK AO2 T01610147
                 =
2016-09-30 04:15 METAR KW99 300815Z AUTO 36003KT 10SM SCT008 OVC019 16/15 A3013 RMK AO2 T01600150
                 =
2016-09-30 03:55 METAR KW99 300755Z AUTO 34006KT 10SM SCT010 OVC016 16/15 A3013 RMK AO2 T01610150
                 =
2016-09-30 03:35 METAR KW99 300735Z AUTO 34007KT 10SM SCT010 OVC014 16/15 A3013 RMK AO2 T01610150
                 =
2016-09-30 03:15 METAR KW99 300715Z AUTO 01003KT 10SM BKN012 OVC018 16/15 A3013 RMK AO2 T01610150
                 =
2016-09-30 02:55 METAR KW99 300655Z AUTO 34007KT 10SM -DZ OVC021 16/15 A3013 RMK AO2 T01630153 =
2016-09-30 02:35 METAR KW99 300635Z AUTO 35007KT 10SM OVC019 17/16 A3013 RMK AO2 T01660155 =
2016-09-30 02:15 METAR KW99 300615Z AUTO 35007KT 10SM OVC019 17/16 A3012 RMK AO2 T01670155 =
2016-09-30 01:55 METAR KW99 300555Z AUTO 34006KT 10SM OVC021 17/16 A3013 RMK AO2 60017 T01710158
                 10200 20171 402010165 =
2016-09-30 01:35 METAR KW99 300535Z AUTO 33004KT 10SM BKN021 OVC029 17/16 A3013 RMK AO2 T01720159
                 =
2016-09-30 01:15 METAR KW99 300515Z AUTO 00000KT 10SM SCT019 OVC026 18/16 A3012 RMK AO2 T01790160
                 =
2016-09-30 00:55 METAR KW99 300455Z AUTO 00000KT 10SM RA SCT018 OVC026 18/16 A3012 RMK AO2 P0001
                 T01810160 =
2016-09-30 00:35 METAR KW99 300435Z AUTO 07004KT 10SM BKN018 OVC026 18/16 A3013 RMK AO2 P0001
                 T01810161 =
2016-09-30 00:15 METAR KW99 300415Z AUTO 04003KT 10SM SCT015 OVC024 18/17 A3012 RMK AO2 P0001
                 T01810165 =
2016-09-29 23:55 METAR KW99 300355Z AUTO 00000KT 10SM -RA BKN015 OVC024 18/17 A3013 RMK AO2 LTG
                 DSNT SW P0005 T01800165 =
2016-09-29 23:35 METAR KW99 300335Z AUTO 00000KT 7SM RA BKN015 OVC024 18/17 A3014 RMK AO2 P0003
                 T01810167 =
2016-09-29 23:15 METAR KW99 300315Z AUTO 00000KT 7SM RA SCT015 SCT021 OVC026 19/17 A3014 RMK AO2
                 P0001 T01850166 =
2016-09-29 22:55 METAR KW99 300255Z AUTO 04003KT 10SM -RA SCT015 BKN025 OVC030 19/17 A3012 RMK
                 AO2 P0004 60011 T01850169 =
2016-09-29 22:35 METAR KW99 300235Z AUTO 00000KT 7SM -RA OVC019 19/17 A3013 RMK AO2 P0002
                 T01880171 =
2016-09-29 22:15 METAR KW99 300215Z AUTO 09004KT 10SM -VCTSRA BKN020 OVC026 19/17 A3012 RMK AO2
                 T01910171 =
2016-09-29 21:55 METAR KW99 300155Z AUTO 05003KT 10SM -RA OVC024 19/17 A3011 RMK AO2 LTG DSNT SW
                 T01910173 =
2016-09-29 21:35 METAR KW99 300135Z AUTO 07005KT 7SM DZ SCT016 BKN024 OVC029 19/18 A3011 RMK AO2
                 LTG DSNT SW T01920176 =
2016-09-29 21:15 METAR KW99 300115Z AUTO 00000KT 10SM -DZ BKN024 OVC030 20/18 A3011 RMK AO2
                 T01950180 =
2016-09-29 20:55 METAR KW99 300055Z AUTO 06004KT 10SM -RA BKN023 OVC029 20/18 A3010 RMK AO2 LTG
                 DSNT S P0007 T02000178 =
2016-09-29 20:35 METAR KW99 300035Z AUTO 00000KT 10SM -RA SCT015 BKN024 OVC030 19/18 A3009 RMK
                 AO2 LTG DSNT S P0007 T01930181 =
2016-09-29 20:15 METAR KW99 300015Z AUTO 00000KT 5SM -RA SCT010 BKN017 OVC028 19/18 A3009 RMK AO2
                 LTG DSNT S THRU W P0005 T01880183 =
2016-09-29 19:55 METAR KW99 292355Z AUTO 31004KT 7SM RA SCT006 BKN017 OVC022 19/18 A3007 RMK AO2
                 LTG DSNT S P0006 60069 T01870182 10201 20180 =
2016-09-29 19:35 METAR KW99 292335Z AUTO 29006KT 7SM -RA SCT008 BKN021 OVC025 19/18 A3007 RMK AO2
                 P0005 T01900183 =
2016-09-29 19:15 METAR KW99 292315Z AUTO 32004KT 7SM -RA BKN026 OVC033 19/18 A3006 RMK AO2 LTG
                 DSNT SW AND W P0002 T01900183 =
2016-09-29 18:55 METAR KW99 292255Z AUTO 00000KT 7SM RA SCT014 BKN022 OVC029 19/19 A3006 RMK AO2
                 P0018 T01910185 =
2016-09-29 18:35 METAR KW99 292235Z AUTO 02003KT 4SM -RA SCT011 BKN015 OVC020 19/19 A3006 RMK AO2
                 LTG DSNT S P0016 T01930189 =
2016-09-29 18:15 METAR KW99 292215Z AUTO 00000KT 5SM RA SCT008 BKN014 OVC022 20/19 A3006 RMK AO2
                 LTG DSNT W P0010 T01950188 =

Support USWX by starting your Amazon purchase here.